Mae Sariang, Thailand
Current Conditions -  °F | °C
As of 4:30 PM on Monday 22 Dec 2014 (Local Time) from VTCC Reporting Station
Broken Clouds Broken Clouds  
Wind Chill: 73°   Ceiling: 4000
Heat Index: 73°   Visibility: 6mi
Dew Point: 50°   Wind: 6mph
Humidity: 44%   Direction: 10°N
Pressure: 30"   Gusts: NA
Location:  18.15°N, 97.93°E
Report Text: VTCC 220930Z 01005KT 9999 BKN040 23/10 Q1016 A3001 NOSIG
Loading
Personal Weather Stations






























Interactive Weather Map New forecast layout! Learn more

10-Day Weather Forecast

Advertisements
Track Severe Weather on mobile